To NAV CANADA Home Page Login to a new session Search on AWWS site Feedback and Comments Disclaimer Vers la page française équivalente Tips FAQ What's new on the site To the Forecasts and Observations / NOTAM section To "File a Flight Plan" website Publications and other links Update of the User's profile FIC Telephone Numbers My Weather Data Folder Route Weather Data Regional Weather Data Local Weather Data To the Forecasts and Observations / NOTAM section
Request Generated 03/07/2015 at 00:04:03 UTC . Weather information available at that time is displayed.

METAR/TAF

QUAQTAQ/QC    

METAR CYHA 062200Z 26004KT 15SM FEW008 FEW120 FEW250 M26/M30 A2962 RMK SF1AC1CS0 TR SF TR AC SN COV/NIL LAST OBS/NEXT 071300UTC SLP0
37=
METAR CYHA 062100Z 28005KT 15SM FEW008 FEW120 FEW250 M26/M29 A2961 RMK SF1AC1CS0 TR SF TR AC SLP034=

*** REMARK        : Forecast period has ended; this was the last TAF issued
*** REMARQUE : La période de prévision est échue; ceci était le dernier TAF qui a été émis
TAF CYHA 061438Z 0615/0622 28010KT P6SM SCT020 TEMPO 0615/0622 2SM IC
BKN020
RMK NXT FCST WILL BE ISSUED AT 071445Z=
Your time UTC time
Weather data provided by Environment Canada and NAV CANADA